sensor_id;sensor_type;location;lat;lon;timestamp;P1;durP1;ratioP1;P2;durP2;ratioP2
61358;SDS011;47228;46.762;23.598;2023-05-10T00:02:02;7.50;;;5.30;;
61358;SDS011;47228;46.762;23.598;2023-05-10T00:04:30;8.10;;;5.50;;
61358;SDS011;47228;46.762;23.598;2023-05-10T00:06:58;10.10;;;5.20;;
61358;SDS011;47228;46.762;23.598;2023-05-10T00:09:26;9.40;;;6.50;;
61358;SDS011;47228;46.762;23.598;2023-05-10T00:11:54;8.00;;;6.00;;
61358;SDS011;47228;46.762;23.598;2023-05-10T00:14:22;12.30;;;6.10;;
61358;SDS011;47228;46.762;23.598;2023-05-10T00:16:50;9.50;;;5.90;;
61358;SDS011;47228;46.762;23.598;2023-05-10T00:19:18;11.10;;;6.40;;
61358;SDS011;47228;46.762;23.598;2023-05-10T00:21:46;11.00;;;6.20;;
61358;SDS011;47228;46.762;23.598;2023-05-10T00:24:14;11.10;;;6.50;;
61358;SDS011;47228;46.762;23.598;2023-05-10T00:26:42;9.80;;;6.20;;
61358;SDS011;47228;46.762;23.598;2023-05-10T00:29:09;9.30;;;6.30;;
61358;SDS011;47228;46.762;23.598;2023-05-10T00:31:37;12.00;;;7.00;;
61358;SDS011;47228;46.762;23.598;2023-05-10T00:34:05;10.00;;;6.40;;
61358;SDS011;47228;46.762;23.598;2023-05-10T00:36:33;10.40;;;6.70;;
61358;SDS011;47228;46.762;23.598;2023-05-10T00:39:01;11.70;;;7.10;;
61358;SDS011;47228;46.762;23.598;2023-05-10T00:41:30;12.60;;;6.90;;
61358;SDS011;47228;46.762;23.598;2023-05-10T00:44:00;9.80;;;7.10;;
61358;SDS011;47228;46.762;23.598;2023-05-10T00:46:29;11.50;;;7.00;;
61358;SDS011;47228;46.762;23.598;2023-05-10T00:48:58;12.00;;;7.20;;
61358;SDS011;47228;46.762;23.598;2023-05-10T00:51:26;12.00;;;7.30;;
61358;SDS011;47228;46.762;23.598;2023-05-10T00:53:54;11.30;;;7.30;;
61358;SDS011;47228;46.762;23.598;2023-05-10T00:56:23;12.70;;;7.50;;
61358;SDS011;47228;46.762;23.598;2023-05-10T00:58:52;14.40;;;8.30;;
61358;SDS011;47228;46.762;23.598;2023-05-10T01:01:20;11.80;;;7.60;;
61358;SDS011;47228;46.762;23.598;2023-05-10T01:03:49;16.10;;;8.20;;
61358;SDS011;47228;46.762;23.598;2023-05-10T01:06:18;12.00;;;7.60;;
61358;SDS011;47228;46.762;23.598;2023-05-10T01:08:46;13.70;;;7.40;;
61358;SDS011;47228;46.762;23.598;2023-05-10T01:11:14;11.30;;;7.80;;
61358;SDS011;47228;46.762;23.598;2023-05-10T01:13:43;13.50;;;7.50;;
61358;SDS011;47228;46.762;23.598;2023-05-10T01:16:16;15.40;;;7.60;;
61358;SDS011;47228;46.762;23.598;2023-05-10T01:18:44;11.70;;;7.50;;
61358;SDS011;47228;46.762;23.598;2023-05-10T01:24:24;13.00;;;8.60;;
61358;SDS011;47228;46.762;23.598;2023-05-10T01:35:00;17.10;;;9.70;;
61358;SDS011;47228;46.762;23.598;2023-05-10T01:40:47;14.00;;;9.10;;
61358;SDS011;47228;46.762;23.598;2023-05-10T01:43:26;16.90;;;10.10;;
61358;SDS011;47228;46.762;23.598;2023-05-10T01:46:20;18.30;;;9.40;;
61358;SDS011;47228;46.762;23.598;2023-05-10T01:48:52;20.10;;;10.90;;
61358;SDS011;47228;46.762;23.598;2023-05-10T01:51:23;18.10;;;10.20;;
61358;SDS011;47228;46.762;23.598;2023-05-10T01:53:54;18.30;;;10.50;;
61358;SDS011;47228;46.762;23.598;2023-05-10T01:56:29;17.70;;;10.90;;
61358;SDS011;47228;46.762;23.598;2023-05-10T01:58:59;18.40;;;10.90;;
61358;SDS011;47228;46.762;23.598;2023-05-10T02:01:33;21.50;;;11.50;;
61358;SDS011;47228;46.762;23.598;2023-05-10T02:04:02;17.40;;;10.50;;
61358;SDS011;47228;46.762;23.598;2023-05-10T02:06:32;18.20;;;11.70;;
61358;SDS011;47228;46.762;23.598;2023-05-10T02:09:02;18.50;;;11.40;;
61358;SDS011;47228;46.762;23.598;2023-05-10T02:11:30;18.50;;;11.20;;
61358;SDS011;47228;46.762;23.598;2023-05-10T02:13:59;18.90;;;12.20;;
61358;SDS011;47228;46.762;23.598;2023-05-10T02:16:28;20.20;;;13.00;;
61358;SDS011;47228;46.762;23.598;2023-05-10T02:18:58;24.70;;;12.30;;
61358;SDS011;47228;46.762;23.598;2023-05-10T02:21:29;19.00;;;11.80;;
61358;SDS011;47228;46.762;23.598;2023-05-10T02:23:58;20.70;;;13.40;;
61358;SDS011;47228;46.762;23.598;2023-05-10T02:26:28;21.60;;;12.80;;
61358;SDS011;47228;46.762;23.598;2023-05-10T02:28:57;18.30;;;11.30;;
61358;SDS011;47228;46.762;23.598;2023-05-10T02:31:26;18.50;;;11.40;;
61358;SDS011;47228;46.762;23.598;2023-05-10T02:33:54;17.60;;;11.10;;
61358;SDS011;47228;46.762;23.598;2023-05-10T02:36:24;20.40;;;10.80;;
61358;SDS011;47228;46.762;23.598;2023-05-10T02:38:55;17.20;;;10.90;;
61358;SDS011;47228;46.762;23.598;2023-05-10T02:41:24;20.10;;;11.40;;
61358;SDS011;47228;46.762;23.598;2023-05-10T02:43:55;19.50;;;11.60;;
61358;SDS011;47228;46.762;23.598;2023-05-10T02:46:26;20.00;;;11.10;;
61358;SDS011;47228;46.762;23.598;2023-05-10T02:48:55;18.90;;;11.20;;
61358;SDS011;47228;46.762;23.598;2023-05-10T02:51:25;21.40;;;12.20;;
61358;SDS011;47228;46.762;23.598;2023-05-10T02:54:01;24.80;;;13.60;;
61358;SDS011;47228;46.762;23.598;2023-05-10T02:56:38;23.60;;;13.20;;
61358;SDS011;47228;46.762;23.598;2023-05-10T02:59:14;21.00;;;12.10;;
61358;SDS011;47228;46.762;23.598;2023-05-10T03:01:42;23.60;;;12.00;;
61358;SDS011;47228;46.762;23.598;2023-05-10T03:04:10;21.40;;;12.10;;
61358;SDS011;47228;46.762;23.598;2023-05-10T03:06:39;19.30;;;11.80;;
61358;SDS011;47228;46.762;23.598;2023-05-10T03:09:07;23.50;;;12.80;;
61358;SDS011;47228;46.762;23.598;2023-05-10T03:20:31;22.30;;;12.60;;
61358;SDS011;47228;46.762;23.598;2023-05-10T03:23:27;21.80;;;12.60;;
61358;SDS011;47228;46.762;23.598;2023-05-10T03:26:02;23.00;;;12.30;;
61358;SDS011;47228;46.762;23.598;2023-05-10T03:28:33;23.40;;;13.70;;
61358;SDS011;47228;46.762;23.598;2023-05-10T03:31:02;21.50;;;13.10;;
61358;SDS011;47228;46.762;23.598;2023-05-10T03:33:32;21.10;;;12.20;;
61358;SDS011;47228;46.762;23.598;2023-05-10T03:36:00;24.90;;;13.80;;
61358;SDS011;47228;46.762;23.598;2023-05-10T03:38:28;22.30;;;13.30;;
61358;SDS011;47228;46.762;23.598;2023-05-10T03:40:57;23.10;;;12.10;;
61358;SDS011;47228;46.762;23.598;2023-05-10T03:43:25;25.40;;;13.30;;
61358;SDS011;47228;46.762;23.598;2023-05-10T03:45:52;21.00;;;13.00;;
61358;SDS011;47228;46.762;23.598;2023-05-10T03:48:21;22.30;;;13.00;;
61358;SDS011;47228;46.762;23.598;2023-05-10T03:50:49;22.60;;;12.90;;
61358;SDS011;47228;46.762;23.598;2023-05-10T03:53:18;20.40;;;13.00;;
61358;SDS011;47228;46.762;23.598;2023-05-10T03:55:46;24.20;;;13.50;;
61358;SDS011;47228;46.762;23.598;2023-05-10T03:58:14;26.70;;;14.30;;
61358;SDS011;47228;46.762;23.598;2023-05-10T04:00:42;21.80;;;14.10;;
61358;SDS011;47228;46.762;23.598;2023-05-10T04:03:13;28.80;;;14.10;;
61358;SDS011;47228;46.762;23.598;2023-05-10T04:05:42;28.30;;;14.10;;
61358;SDS011;47228;46.762;23.598;2023-05-10T04:08:10;22.40;;;13.60;;
61358;SDS011;47228;46.762;23.598;2023-05-10T04:10:38;23.20;;;13.60;;
61358;SDS011;47228;46.762;23.598;2023-05-10T04:13:06;25.50;;;14.40;;
61358;SDS011;47228;46.762;23.598;2023-05-10T04:15:34;27.20;;;15.50;;
61358;SDS011;47228;46.762;23.598;2023-05-10T04:18:03;22.30;;;16.30;;
61358;SDS011;47228;46.762;23.598;2023-05-10T04:20:35;33.10;;;16.60;;
61358;SDS011;47228;46.762;23.598;2023-05-10T04:23:03;32.80;;;16.00;;
61358;SDS011;47228;46.762;23.598;2023-05-10T04:25:33;32.50;;;14.70;;
61358;SDS011;47228;46.762;23.598;2023-05-10T04:28:02;31.40;;;15.30;;
61358;SDS011;47228;46.762;23.598;2023-05-10T04:30:30;35.10;;;15.30;;
61358;SDS011;47228;46.762;23.598;2023-05-10T04:32:59;28.80;;;14.20;;
61358;SDS011;47228;46.762;23.598;2023-05-10T04:35:27;28.80;;;13.90;;
61358;SDS011;47228;46.762;23.598;2023-05-10T04:37:56;26.10;;;13.40;;
61358;SDS011;47228;46.762;23.598;2023-05-10T04:40:24;26.50;;;12.80;;
61358;SDS011;47228;46.762;23.598;2023-05-10T04:42:53;23.80;;;13.20;;
61358;SDS011;47228;46.762;23.598;2023-05-10T04:45:21;22.20;;;12.40;;
61358;SDS011;47228;46.762;23.598;2023-05-10T04:47:49;25.00;;;13.80;;
61358;SDS011;47228;46.762;23.598;2023-05-10T04:50:17;23.40;;;11.80;;
61358;SDS011;47228;46.762;23.598;2023-05-10T04:52:45;24.30;;;12.00;;
61358;SDS011;47228;46.762;23.598;2023-05-10T04:55:13;24.30;;;12.70;;
61358;SDS011;47228;46.762;23.598;2023-05-10T04:57:41;28.70;;;12.30;;
61358;SDS011;47228;46.762;23.598;2023-05-10T05:00:10;22.40;;;11.80;;
61358;SDS011;47228;46.762;23.598;2023-05-10T05:02:41;26.50;;;11.70;;
61358;SDS011;47228;46.762;23.598;2023-05-10T05:05:12;19.40;;;10.70;;
61358;SDS011;47228;46.762;23.598;2023-05-10T05:07:40;18.90;;;10.90;;
61358;SDS011;47228;46.762;23.598;2023-05-10T05:10:08;25.60;;;11.90;;
61358;SDS011;47228;46.762;23.598;2023-05-10T05:12:37;24.80;;;11.30;;
61358;SDS011;47228;46.762;23.598;2023-05-10T05:15:05;21.00;;;10.50;;
61358;SDS011;47228;46.762;23.598;2023-05-10T05:17:36;19.30;;;10.70;;
61358;SDS011;47228;46.762;23.598;2023-05-10T05:20:04;22.90;;;9.60;;
61358;SDS011;47228;46.762;23.598;2023-05-10T05:22:33;21.30;;;9.70;;
61358;SDS011;47228;46.762;23.598;2023-05-10T05:25:00;15.70;;;7.30;;
61358;SDS011;47228;46.762;23.598;2023-05-10T05:27:31;15.60;;;6.80;;
61358;SDS011;47228;46.762;23.598;2023-05-10T05:29:59;13.60;;;7.00;;
61358;SDS011;47228;46.762;23.598;2023-05-10T05:32:27;12.00;;;6.60;;
61358;SDS011;47228;46.762;23.598;2023-05-10T05:34:56;15.60;;;7.00;;
61358;SDS011;47228;46.762;23.598;2023-05-10T05:37:27;12.20;;;7.00;;
61358;SDS011;47228;46.762;23.598;2023-05-10T05:39:55;15.60;;;6.50;;
61358;SDS011;47228;46.762;23.598;2023-05-10T05:42:23;13.70;;;6.50;;
61358;SDS011;47228;46.762;23.598;2023-05-10T05:44:51;15.10;;;6.60;;
61358;SDS011;47228;46.762;23.598;2023-05-10T05:47:19;12.10;;;6.70;;
61358;SDS011;47228;46.762;23.598;2023-05-10T05:49:46;12.10;;;6.50;;
61358;SDS011;47228;46.762;23.598;2023-05-10T05:52:14;11.30;;;6.50;;
61358;SDS011;47228;46.762;23.598;2023-05-10T05:54:44;11.00;;;6.00;;
61358;SDS011;47228;46.762;23.598;2023-05-10T05:57:13;12.70;;;6.30;;
61358;SDS011;47228;46.762;23.598;2023-05-10T05:59:43;12.90;;;6.00;;
61358;SDS011;47228;46.762;23.598;2023-05-10T06:02:11;11.90;;;6.30;;
61358;SDS011;47228;46.762;23.598;2023-05-10T06:04:39;9.70;;;6.00;;
61358;SDS011;47228;46.762;23.598;2023-05-10T06:07:12;12.50;;;6.70;;
61358;SDS011;47228;46.762;23.598;2023-05-10T06:09:40;11.10;;;6.40;;
61358;SDS011;47228;46.762;23.598;2023-05-10T06:12:08;11.70;;;6.30;;
61358;SDS011;47228;46.762;23.598;2023-05-10T06:14:36;10.30;;;6.10;;
61358;SDS011;47228;46.762;23.598;2023-05-10T06:17:04;10.10;;;5.70;;
61358;SDS011;47228;46.762;23.598;2023-05-10T06:19:32;9.10;;;6.00;;
61358;SDS011;47228;46.762;23.598;2023-05-10T06:22:00;13.80;;;5.60;;
61358;SDS011;47228;46.762;23.598;2023-05-10T06:24:28;10.20;;;6.40;;
61358;SDS011;47228;46.762;23.598;2023-05-10T06:26:56;10.40;;;5.70;;
61358;SDS011;47228;46.762;23.598;2023-05-10T06:29:25;12.80;;;6.70;;
61358;SDS011;47228;46.762;23.598;2023-05-10T06:31:53;13.20;;;6.10;;
61358;SDS011;47228;46.762;23.598;2023-05-10T06:34:22;11.40;;;6.00;;
61358;SDS011;47228;46.762;23.598;2023-05-10T06:36:49;9.20;;;5.60;;
61358;SDS011;47228;46.762;23.598;2023-05-10T06:39:17;12.50;;;6.00;;
61358;SDS011;47228;46.762;23.598;2023-05-10T06:41:45;11.90;;;6.20;;
61358;SDS011;47228;46.762;23.598;2023-05-10T06:44:13;12.40;;;6.10;;
61358;SDS011;47228;46.762;23.598;2023-05-10T06:46:41;12.30;;;6.30;;
61358;SDS011;47228;46.762;23.598;2023-05-10T06:49:09;10.60;;;6.40;;
61358;SDS011;47228;46.762;23.598;2023-05-10T06:51:37;9.80;;;6.40;;
61358;SDS011;47228;46.762;23.598;2023-05-10T06:54:05;11.20;;;6.30;;
61358;SDS011;47228;46.762;23.598;2023-05-10T06:56:34;9.80;;;5.80;;
61358;SDS011;47228;46.762;23.598;2023-05-10T06:59:02;11.50;;;6.70;;
61358;SDS011;47228;46.762;23.598;2023-05-10T07:01:30;14.10;;;7.30;;
61358;SDS011;47228;46.762;23.598;2023-05-10T07:03:59;13.60;;;7.00;;
61358;SDS011;47228;46.762;23.598;2023-05-10T07:06:27;10.70;;;6.80;;
61358;SDS011;47228;46.762;23.598;2023-05-10T07:09:00;11.80;;;6.60;;
61358;SDS011;47228;46.762;23.598;2023-05-10T07:11:28;10.20;;;6.60;;
61358;SDS011;47228;46.762;23.598;2023-05-10T07:13:56;10.70;;;6.70;;
61358;SDS011;47228;46.762;23.598;2023-05-10T07:16:24;10.90;;;6.40;;
61358;SDS011;47228;46.762;23.598;2023-05-10T07:18:53;14.10;;;6.60;;
61358;SDS011;47228;46.762;23.598;2023-05-10T07:21:21;10.40;;;6.90;;
61358;SDS011;47228;46.762;23.598;2023-05-10T07:23:51;11.40;;;6.50;;
61358;SDS011;47228;46.762;23.598;2023-05-10T07:26:19;11.60;;;6.70;;
61358;SDS011;47228;46.762;23.598;2023-05-10T07:28:48;11.30;;;6.20;;
61358;SDS011;47228;46.762;23.598;2023-05-10T07:31:16;10.60;;;6.40;;
61358;SDS011;47228;46.762;23.598;2023-05-10T07:33:44;9.80;;;6.30;;
61358;SDS011;47228;46.762;23.598;2023-05-10T07:36:12;13.90;;;6.90;;
61358;SDS011;47228;46.762;23.598;2023-05-10T07:38:40;11.80;;;6.90;;
61358;SDS011;47228;46.762;23.598;2023-05-10T07:41:08;11.10;;;6.00;;
61358;SDS011;47228;46.762;23.598;2023-05-10T07:43:36;14.10;;;6.60;;
61358;SDS011;47228;46.762;23.598;2023-05-10T07:46:04;12.90;;;5.80;;
61358;SDS011;47228;46.762;23.598;2023-05-10T07:48:32;9.40;;;5.90;;
61358;SDS011;47228;46.762;23.598;2023-05-10T07:51:00;8.80;;;5.50;;
61358;SDS011;47228;46.762;23.598;2023-05-10T07:53:28;7.40;;;5.10;;
61358;SDS011;47228;46.762;23.598;2023-05-10T07:55:57;9.30;;;4.80;;
61358;SDS011;47228;46.762;23.598;2023-05-10T07:58:25;10.00;;;5.10;;
61358;SDS011;47228;46.762;23.598;2023-05-10T08:00:54;8.00;;;4.60;;
61358;SDS011;47228;46.762;23.598;2023-05-10T08:03:22;9.70;;;5.10;;
61358;SDS011;47228;46.762;23.598;2023-05-10T08:05:50;8.40;;;5.20;;
61358;SDS011;47228;46.762;23.598;2023-05-10T08:08:18;8.00;;;5.10;;
61358;SDS011;47228;46.762;23.598;2023-05-10T08:10:47;9.40;;;5.10;;
61358;SDS011;47228;46.762;23.598;2023-05-10T08:13:15;10.40;;;4.80;;
61358;SDS011;47228;46.762;23.598;2023-05-10T08:15:43;7.60;;;4.50;;
61358;SDS011;47228;46.762;23.598;2023-05-10T08:18:11;8.70;;;5.10;;
61358;SDS011;47228;46.762;23.598;2023-05-10T08:20:39;9.30;;;5.10;;
61358;SDS011;47228;46.762;23.598;2023-05-10T08:23:09;8.60;;;4.90;;
61358;SDS011;47228;46.762;23.598;2023-05-10T08:25:37;8.30;;;4.40;;
61358;SDS011;47228;46.762;23.598;2023-05-10T08:28:05;8.90;;;4.40;;
61358;SDS011;47228;46.762;23.598;2023-05-10T08:30:35;9.20;;;4.80;;
61358;SDS011;47228;46.762;23.598;2023-05-10T08:33:03;8.40;;;5.10;;
61358;SDS011;47228;46.762;23.598;2023-05-10T08:35:31;9.10;;;4.80;;
61358;SDS011;47228;46.762;23.598;2023-05-10T08:38:01;8.50;;;4.70;;
61358;SDS011;47228;46.762;23.598;2023-05-10T08:40:29;7.20;;;4.10;;
61358;SDS011;47228;46.762;23.598;2023-05-10T08:45:37;6.40;;;3.90;;
61358;SDS011;47228;46.762;23.598;2023-05-10T08:48:10;6.30;;;4.10;;
61358;SDS011;47228;46.762;23.598;2023-05-10T08:50:39;6.40;;;3.90;;
61358;SDS011;47228;46.762;23.598;2023-05-10T08:53:10;7.60;;;3.70;;
61358;SDS011;47228;46.762;23.598;2023-05-10T08:55:42;7.50;;;4.20;;
61358;SDS011;47228;46.762;23.598;2023-05-10T08:58:10;8.80;;;4.50;;
61358;SDS011;47228;46.762;23.598;2023-05-10T09:00:38;6.60;;;3.90;;
61358;SDS011;47228;46.762;23.598;2023-05-10T09:03:07;7.60;;;4.40;;
61358;SDS011;47228;46.762;23.598;2023-05-10T09:05:36;9.70;;;4.50;;
61358;SDS011;47228;46.762;23.598;2023-05-10T09:08:05;8.00;;;4.10;;
61358;SDS011;47228;46.762;23.598;2023-05-10T09:10:34;7.20;;;4.10;;
61358;SDS011;47228;46.762;23.598;2023-05-10T09:13:02;6.90;;;4.00;;
61358;SDS011;47228;46.762;23.598;2023-05-10T09:15:32;8.10;;;4.10;;
61358;SDS011;47228;46.762;23.598;2023-05-10T09:18:00;8.30;;;4.50;;
61358;SDS011;47228;46.762;23.598;2023-05-10T11:32:33;8.50;;;3.00;;
61358;SDS011;47228;46.762;23.598;2023-05-10T11:35:10;8.40;;;3.60;;
61358;SDS011;47228;46.762;23.598;2023-05-10T11:37:40;7.90;;;3.40;;
61358;SDS011;47228;46.762;23.598;2023-05-10T11:40:11;7.90;;;3.80;;
61358;SDS011;47228;46.762;23.598;2023-05-10T11:42:39;6.80;;;3.30;;
61358;SDS011;47228;46.762;23.598;2023-05-10T11:45:07;8.00;;;3.50;;
61358;SDS011;47228;46.762;23.598;2023-05-10T11:47:36;10.10;;;3.50;;
61358;SDS011;47228;46.762;23.598;2023-05-10T11:50:04;8.10;;;3.90;;
61358;SDS011;47228;46.762;23.598;2023-05-10T11:52:36;8.00;;;3.90;;
61358;SDS011;47228;46.762;23.598;2023-05-10T11:55:05;8.80;;;3.70;;
61358;SDS011;47228;46.762;23.598;2023-05-10T11:57:34;6.70;;;3.80;;
61358;SDS011;47228;46.762;23.598;2023-05-10T12:00:03;11.00;;;4.10;;
61358;SDS011;47228;46.762;23.598;2023-05-10T12:02:33;11.90;;;3.60;;
61358;SDS011;47228;46.762;23.598;2023-05-10T12:05:01;8.60;;;3.70;;
61358;SDS011;47228;46.762;23.598;2023-05-10T12:07:32;7.10;;;3.40;;
61358;SDS011;47228;46.762;23.598;2023-05-10T12:10:07;6.90;;;3.50;;
61358;SDS011;47228;46.762;23.598;2023-05-10T12:12:44;8.10;;;3.60;;
61358;SDS011;47228;46.762;23.598;2023-05-10T12:15:21;9.40;;;3.50;;
61358;SDS011;47228;46.762;23.598;2023-05-10T12:17:51;10.40;;;4.50;;
61358;SDS011;47228;46.762;23.598;2023-05-10T12:20:20;6.70;;;4.00;;
61358;SDS011;47228;46.762;23.598;2023-05-10T12:22:50;6.90;;;3.80;;
61358;SDS011;47228;46.762;23.598;2023-05-10T12:25:21;13.80;;;3.80;;
61358;SDS011;47228;46.762;23.598;2023-05-10T12:27:51;8.60;;;3.90;;
61358;SDS011;47228;46.762;23.598;2023-05-10T12:30:21;7.20;;;3.80;;
61358;SDS011;47228;46.762;23.598;2023-05-10T12:32:53;8.40;;;3.70;;
61358;SDS011;47228;46.762;23.598;2023-05-10T12:35:22;8.30;;;4.10;;
61358;SDS011;47228;46.762;23.598;2023-05-10T12:37:51;7.30;;;3.90;;
61358;SDS011;47228;46.762;23.598;2023-05-10T12:40:19;7.90;;;3.60;;
61358;SDS011;47228;46.762;23.598;2023-05-10T12:42:47;8.60;;;3.30;;
61358;SDS011;47228;46.762;23.598;2023-05-10T12:45:17;5.50;;;3.30;;
61358;SDS011;47228;46.762;23.598;2023-05-10T12:47:45;6.80;;;3.50;;
61358;SDS011;47228;46.762;23.598;2023-05-10T12:50:13;6.60;;;3.50;;
61358;SDS011;47228;46.762;23.598;2023-05-10T12:52:42;7.70;;;3.40;;
61358;SDS011;47228;46.762;23.598;2023-05-10T12:55:10;10.00;;;3.80;;
61358;SDS011;47228;46.762;23.598;2023-05-10T12:57:41;5.00;;;3.50;;
61358;SDS011;47228;46.762;23.598;2023-05-10T13:00:09;6.30;;;3.70;;
61358;SDS011;47228;46.762;23.598;2023-05-10T13:02:37;7.10;;;3.60;;
61358;SDS011;47228;46.762;23.598;2023-05-10T13:05:05;6.30;;;3.40;;
61358;SDS011;47228;46.762;23.598;2023-05-10T13:07:33;6.80;;;3.70;;
61358;SDS011;47228;46.762;23.598;2023-05-10T13:10:02;7.60;;;3.60;;
61358;SDS011;47228;46.762;23.598;2023-05-10T13:12:30;6.10;;;3.40;;
61358;SDS011;47228;46.762;23.598;2023-05-10T13:14:58;8.30;;;3.90;;
61358;SDS011;47228;46.762;23.598;2023-05-10T13:17:26;6.80;;;3.40;;
61358;SDS011;47228;46.762;23.598;2023-05-10T13:19:54;6.20;;;3.30;;
61358;SDS011;47228;46.762;23.598;2023-05-10T13:22:22;6.30;;;3.40;;
61358;SDS011;47228;46.762;23.598;2023-05-10T13:25:06;6.80;;;3.30;;
61358;SDS011;47228;46.762;23.598;2023-05-10T13:27:34;7.00;;;3.00;;
61358;SDS011;47228;46.762;23.598;2023-05-10T13:30:02;4.90;;;3.00;;
61358;SDS011;47228;46.762;23.598;2023-05-10T13:32:31;7.70;;;3.30;;
61358;SDS011;47228;46.762;23.598;2023-05-10T13:35:00;5.50;;;3.00;;
61358;SDS011;47228;46.762;23.598;2023-05-10T13:37:31;5.80;;;3.20;;
61358;SDS011;47228;46.762;23.598;2023-05-10T13:40:03;6.10;;;3.90;;
61358;SDS011;47228;46.762;23.598;2023-05-10T13:42:34;7.60;;;3.10;;
61358;SDS011;47228;46.762;23.598;2023-05-10T13:45:03;5.20;;;2.80;;
61358;SDS011;47228;46.762;23.598;2023-05-10T13:47:33;5.20;;;2.90;;
61358;SDS011;47228;46.762;23.598;2023-05-10T13:50:02;6.80;;;3.30;;
61358;SDS011;47228;46.762;23.598;2023-05-10T13:52:32;6.90;;;3.70;;
61358;SDS011;47228;46.762;23.598;2023-05-10T13:55:02;7.20;;;3.10;;
61358;SDS011;47228;46.762;23.598;2023-05-10T13:57:31;8.70;;;3.30;;
61358;SDS011;47228;46.762;23.598;2023-05-10T13:59:59;9.30;;;3.70;;
61358;SDS011;47228;46.762;23.598;2023-05-10T14:02:27;5.10;;;3.20;;
61358;SDS011;47228;46.762;23.598;2023-05-10T14:04:55;7.10;;;3.10;;
61358;SDS011;47228;46.762;23.598;2023-05-10T14:07:23;7.30;;;3.40;;
61358;SDS011;47228;46.762;23.598;2023-05-10T14:09:51;6.10;;;3.30;;
61358;SDS011;47228;46.762;23.598;2023-05-10T14:12:20;6.40;;;3.30;;
61358;SDS011;47228;46.762;23.598;2023-05-10T14:14:48;6.50;;;3.20;;
61358;SDS011;47228;46.762;23.598;2023-05-10T14:17:16;5.20;;;2.90;;
61358;SDS011;47228;46.762;23.598;2023-05-10T14:19:44;5.70;;;3.00;;
61358;SDS011;47228;46.762;23.598;2023-05-10T14:22:12;6.60;;;3.20;;
61358;SDS011;47228;46.762;23.598;2023-05-10T14:24:40;5.30;;;2.90;;
61358;SDS011;47228;46.762;23.598;2023-05-10T14:27:08;12.20;;;3.30;;
61358;SDS011;47228;46.762;23.598;2023-05-10T14:29:36;5.10;;;3.40;;
61358;SDS011;47228;46.762;23.598;2023-05-10T14:32:04;5.60;;;3.00;;
61358;SDS011;47228;46.762;23.598;2023-05-10T14:34:32;8.10;;;3.30;;
61358;SDS011;47228;46.762;23.598;2023-05-10T14:37:00;8.10;;;3.20;;
61358;SDS011;47228;46.762;23.598;2023-05-10T14:39:28;7.60;;;3.60;;
61358;SDS011;47228;46.762;23.598;2023-05-10T14:41:57;8.30;;;3.10;;
61358;SDS011;47228;46.762;23.598;2023-05-10T14:44:26;6.20;;;3.40;;
61358;SDS011;47228;46.762;23.598;2023-05-10T14:46:54;6.90;;;3.10;;
61358;SDS011;47228;46.762;23.598;2023-05-10T14:49:22;6.70;;;3.10;;
61358;SDS011;47228;46.762;23.598;2023-05-10T14:51:52;7.00;;;3.10;;
61358;SDS011;47228;46.762;23.598;2023-05-10T14:54:20;6.00;;;3.40;;
61358;SDS011;47228;46.762;23.598;2023-05-10T14:56:48;5.70;;;3.00;;
61358;SDS011;47228;46.762;23.598;2023-05-10T14:59:17;7.50;;;3.20;;
61358;SDS011;47228;46.762;23.598;2023-05-10T15:01:45;6.40;;;3.40;;
61358;SDS011;47228;46.762;23.598;2023-05-10T15:04:14;5.80;;;3.50;;
61358;SDS011;47228;46.762;23.598;2023-05-10T15:06:44;7.10;;;3.10;;
61358;SDS011;47228;46.762;23.598;2023-05-10T15:09:12;5.40;;;3.10;;
61358;SDS011;47228;46.762;23.598;2023-05-10T15:11:40;6.40;;;2.90;;
61358;SDS011;47228;46.762;23.598;2023-05-10T15:14:08;6.60;;;3.00;;
61358;SDS011;47228;46.762;23.598;2023-05-10T15:16:36;6.50;;;3.10;;
61358;SDS011;47228;46.762;23.598;2023-05-10T15:19:05;5.50;;;3.00;;
61358;SDS011;47228;46.762;23.598;2023-05-10T15:21:33;5.80;;;2.80;;
61358;SDS011;47228;46.762;23.598;2023-05-10T15:24:06;4.30;;;2.90;;
61358;SDS011;47228;46.762;23.598;2023-05-10T15:26:34;5.20;;;3.00;;
61358;SDS011;47228;46.762;23.598;2023-05-10T15:29:02;7.50;;;3.00;;
61358;SDS011;47228;46.762;23.598;2023-05-10T15:31:32;3.90;;;2.40;;
61358;SDS011;47228;46.762;23.598;2023-05-10T15:34:02;5.80;;;2.90;;
61358;SDS011;47228;46.762;23.598;2023-05-10T15:36:31;8.80;;;2.80;;
61358;SDS011;47228;46.762;23.598;2023-05-10T15:38:59;5.00;;;2.70;;
61358;SDS011;47228;46.762;23.598;2023-05-10T15:41:27;7.40;;;2.80;;
61358;SDS011;47228;46.762;23.598;2023-05-10T15:43:56;5.80;;;2.50;;
61358;SDS011;47228;46.762;23.598;2023-05-10T15:46:27;6.50;;;3.30;;
61358;SDS011;47228;46.762;23.598;2023-05-10T15:48:56;5.60;;;2.90;;
61358;SDS011;47228;46.762;23.598;2023-05-10T15:51:26;4.30;;;2.70;;
61358;SDS011;47228;46.762;23.598;2023-05-10T15:53:54;5.80;;;2.70;;
61358;SDS011;47228;46.762;23.598;2023-05-10T15:56:34;7.80;;;3.20;;
61358;SDS011;47228;46.762;23.598;2023-05-10T15:59:03;8.00;;;3.10;;
61358;SDS011;47228;46.762;23.598;2023-05-10T16:01:32;6.70;;;3.10;;
61358;SDS011;47228;46.762;23.598;2023-05-10T16:04:03;5.70;;;2.70;;
61358;SDS011;47228;46.762;23.598;2023-05-10T16:06:31;5.80;;;3.00;;
61358;SDS011;47228;46.762;23.598;2023-05-10T16:08:59;6.90;;;2.90;;
61358;SDS011;47228;46.762;23.598;2023-05-10T16:11:27;7.20;;;2.80;;
61358;SDS011;47228;46.762;23.598;2023-05-10T16:13:55;8.10;;;3.00;;
61358;SDS011;47228;46.762;23.598;2023-05-10T16:16:23;8.30;;;3.00;;
61358;SDS011;47228;46.762;23.598;2023-05-10T16:18:51;6.50;;;2.90;;
61358;SDS011;47228;46.762;23.598;2023-05-10T16:21:19;5.50;;;2.80;;
61358;SDS011;47228;46.762;23.598;2023-05-10T16:23:48;9.20;;;3.40;;
61358;SDS011;47228;46.762;23.598;2023-05-10T16:26:16;7.70;;;2.90;;
61358;SDS011;47228;46.762;23.598;2023-05-10T16:28:44;6.30;;;3.50;;
61358;SDS011;47228;46.762;23.598;2023-05-10T16:31:12;7.50;;;2.90;;
61358;SDS011;47228;46.762;23.598;2023-05-10T16:33:40;13.60;;;4.20;;
61358;SDS011;47228;46.762;23.598;2023-05-10T16:36:08;7.90;;;3.60;;
61358;SDS011;47228;46.762;23.598;2023-05-10T16:38:36;8.60;;;3.30;;
61358;SDS011;47228;46.762;23.598;2023-05-10T16:41:04;10.00;;;3.20;;
61358;SDS011;47228;46.762;23.598;2023-05-10T16:43:33;9.30;;;3.60;;
61358;SDS011;47228;46.762;23.598;2023-05-10T16:46:01;7.40;;;3.10;;
61358;SDS011;47228;46.762;23.598;2023-05-10T16:48:29;4.30;;;2.70;;
61358;SDS011;47228;46.762;23.598;2023-05-10T16:50:57;7.40;;;3.10;;
61358;SDS011;47228;46.762;23.598;2023-05-10T16:53:25;5.10;;;3.20;;
61358;SDS011;47228;46.762;23.598;2023-05-10T16:55:53;5.80;;;3.10;;
61358;SDS011;47228;46.762;23.598;2023-05-10T16:58:21;6.80;;;3.20;;
61358;SDS011;47228;46.762;23.598;2023-05-10T17:00:49;6.90;;;3.20;;
61358;SDS011;47228;46.762;23.598;2023-05-10T17:03:17;5.80;;;3.10;;
61358;SDS011;47228;46.762;23.598;2023-05-10T17:05:45;5.00;;;3.00;;
61358;SDS011;47228;46.762;23.598;2023-05-10T17:08:13;7.20;;;3.60;;
61358;SDS011;47228;46.762;23.598;2023-05-10T17:10:42;13.50;;;3.90;;
61358;SDS011;47228;46.762;23.598;2023-05-10T17:13:10;8.00;;;3.60;;
61358;SDS011;47228;46.762;23.598;2023-05-10T17:15:43;6.70;;;3.40;;